• Join FlightAware (Why Join?)
  • Login
  • US Flag 
03:54PM EDT


 

Airport Tracker/Info


-or-


 

Live Flight TrackerFlight Track Log ✈ GJS3707 ✈ 15-May-2013 ✈ KBOI - KORD

Flight Track Log - Related Links

Times and Time Zones

All times are in EDT time to prevent confusion due to time zone crossing. See the GJS3707 flight status page for this flight to view local times or setup timezone preferences in your user account.

Time Position Orientation Groundspeed Altitude Reporting Facility
EDT Latitude Longitude Course Direction KTS MPH feet Rate Location/Type
03:11PM 43.6653 -116.2531 27° Northeast 266 306 7,200  Level Salt Lake Center
03:12PM 43.6602 -115.5421 78° East  Level FlightAware Approximate
03:12PM 43.6756 -116.1306 83° East 290 334 9,700  Level Salt Lake Center
03:13PM 43.6786 -115.3689 83° East  Level FlightAware Approximate
03:13PM 43.6886 -116.0161 81° East 309 356 11,300  Level Salt Lake Center
03:14PM 43.7038 -115.1996 81° East  Level FlightAware Approximate
03:14PM 43.6983 -115.8581 85° East 367 422 12,900  Level Salt Lake Center
03:15PM 43.7231 -115.0263 81° East  Level FlightAware Approximate
03:15PM 43.6986 -115.7175 90° East 381 438 14,500  Level Salt Lake Center
03:16PM 43.6994 -115.5711 89° East 396 456 16,200 1,620 Climbing Salt Lake Center
03:17PM 43.7003 -115.3919 90° East 417 480 17,900 1,500 Climbing Salt Lake Center
03:18PM 43.7078 -115.2319 86° East 438 504 19,300 1,500 Climbing Salt Lake Center
03:19PM 43.7339 -115.0478 79° East 441 507 21,000 1,260 Climbing Salt Lake Center
03:20PM 43.7572 -114.8850 79° East 451 519 22,000 1,140 Climbing Salt Lake Center
03:21PM 43.7831 -114.6892 80° East 465 535 23,400 1,260 Climbing Salt Lake Center
03:22PM 43.8056 -114.5208 79° East 464 534 24,700 1,260 Climbing Salt Lake Center
03:23PM 43.8328 -114.3214 79° East 472 543 26,000 1,020 Climbing Salt Lake Center
03:24PM 43.8550 -114.1497 80° East 474 545 26,900 900 Climbing Salt Lake Center
03:25PM 43.8778 -113.9744 80° East 482 555 27,900 1,020 Climbing Salt Lake Center
03:26PM 43.9028 -113.7808 80° East 485 558 29,000 1,020 Climbing Salt Lake Center
03:27PM 43.9219 -113.5733 83° East 485 558 30,100 960 Climbing Salt Lake Center
03:28PM 43.9275 -113.3956 87° East 483 556 31,100 960 Climbing Salt Lake Center
03:29PM 43.9358 -113.1886 87° East 483 556 32,200 960 Climbing Salt Lake Center
03:30PM 43.9431 -113.0108 87° East 483 556 33,100 900 Climbing Salt Lake Center
03:31PM 43.9492 -112.8350 87° East 478 550 34,100 960 Climbing Salt Lake Center
03:32PM 43.9561 -112.6322 87° East 473 544 35,200 900 Climbing Salt Lake Center
03:33PM 43.9622 -112.4603 87° East 469 540 36,000 780 Climbing Salt Lake Center
03:34PM 43.9675 -112.2614 88° East 464 534 36,900 480 Climbing Salt Lake Center
03:35PM 43.9731 -112.0922 87° East 461 531 37,000  Climbing Salt Lake Center
03:36PM 43.9806 -111.8914 87° East 467 537 37,000  Level Salt Lake Center
03:37PM 43.9836 -111.7119 89° East 483 556 37,000  Level Salt Lake Center
03:38PM 43.9894 -111.5056 88° East 483 556 37,000  Level Salt Lake Center
03:39PM 43.9942 -111.3275 88° East 484 557 37,000  Level Salt Lake Center
03:40PM 43.9986 -111.1211 88° East 482 555 37,000  Level Salt Lake Center
03:41PM 44.0025 -110.9419 88° East 487 560 37,000  Level Salt Lake Center
03:43PM 44.0061 -110.7331 89° East 488 562 37,000  Level Salt Lake Center
03:44PM 44.0094 -110.5544 88° East 486 559 37,000  Level Salt Lake Center
03:45PM 44.0125 -110.3761 89° East 485 558 37,000  Level Salt Lake Center
03:46PM 44.0153 -110.1656 89° East 490 564 37,000  Level Salt Lake Center
03:47PM 44.0167 -109.9883 89° East 483 556 37,000  Level Salt Lake Center
03:48PM 44.0181 -109.7800 89° East 487 560 37,000  Level Salt Lake Center
03:49PM 44.0194 -109.6008 89° East 485 558 37,000  Level Salt Lake Center
03:50PM 44.0206 -109.4164 89° East 484 557 37,000  Level Salt Lake Center
03:51PM 44.0228 -109.2047 89° East 492 566 37,000  Level Salt Lake Center
03:52PM 44.0225 -109.0219 90° East 496 571 37,000  Level Salt Lake Center
03:53PM 44.0219 -108.8058 90° East 501 577 37,000  Level Salt Lake Center
03:54PM 44.0231 -108.6200 89° East 505 581 37,000  Level Salt Lake Center
03:55PM 44.0217 -108.4014 90° East 509 586 37,000  Level Salt Lake Center
03:56PM 44.0211 -108.2133 90° East 510 587 37,000  Level Salt Lake Center
03:57PM 44.0200 -107.9919 90° East 515 593 37,000  Level Salt Lake Center
03:58PM 44.0192 -107.8025 90° East 516 594 37,000  Level Salt Lake Center
03:59PM 44.0158 -107.5783 91° East 522 601 37,000  Level Salt Lake Center
04:00PM 44.0144 -107.3872 91° East 519 597 37,000  Level Salt Lake Center
04:01PM 44.0119 -107.1978 91° East 516 594 37,000  Level Salt Lake Center
04:01PM 44.0114 -107.1319 91° East 520 598 37,000  Level Denver Center
04:02PM 44.0094 -106.9736 91° East 518 596 37,000  Level Salt Lake Center
04:03PM 44.0058 -106.7233 91° East 516 594 37,000  Level Denver Center
04:04PM 44.0022 -106.5350 91° East 511 588 37,000  Level Denver Center
04:05PM 44.0003 -106.3139 91° East 513 590 37,000  Level Denver Center
04:06PM 44.0017 -106.1233 89° East 514 592 37,000  Level Denver Center
04:07PM 44.0033 -105.9014 89° East 515 593 37,000  Level Denver Center
04:08PM 44.0036 -105.7106 90° East 516 594 37,000  Level Denver Center
04:10PM 44.0050 -105.3617 90° East 515 593 37,000  Level Salt Lake Center
04:11PM 44.0036 -105.3289 93° East 516 594 37,000  Level Denver Center
04:12PM 44.0033 -105.1072 90° East 515 593 37,000  Level Denver Center
04:13PM 44.0017 -104.8856 91° East 515 593 37,000  Level Denver Center
04:14PM 44.0017 -104.6953 90° East 514 592 37,000  Level Denver Center
04:15PM 43.9989 -104.4731 91° East 514 592 37,000  Level Denver Center
04:16PM 43.9969 -104.2828 91° East 514 592 37,000  Level Denver Center
04:17PM 43.9944 -104.0628 91° East 512 589 37,000  Level Denver Center
04:18PM 43.9917 -103.8722 91° East 514 592 37,000  Level Denver Center
04:19PM 43.9883 -103.6825 91° East 513 590 37,000  Level Denver Center
04:20PM 43.9847 -103.4622 91° East 510 587 37,000  Level Denver Center
04:21PM 43.9833 -103.2747 91° East 508 585 37,000  Level Denver Center
04:22PM 43.9778 -103.0511 92° East 515 593 37,000  Level Denver Center
04:23PM 43.9714 -102.8611 93° East 516 594 37,000  Level Denver Center
04:24PM 43.9675 -102.6917 92° East 513 590 37,000  Level Denver Center
04:25PM 43.9583 -102.4536 93° East 516 594 37,000  Level Denver Center
04:26PM 43.9511 -102.2542 93° East 517 595 37,000  Level Denver Center
04:27PM 43.9436 -102.0550 93° East 519 597 37,000  Level Denver Center
04:28PM 43.9358 -101.8550 93° East 520 598 37,000  Level Denver Center
04:29PM 43.9322 -101.6222 91° East 511 588 37,000  Level Denver Center
04:30PM 43.9247 -101.4250 93° East 512 589 37,000  Level Denver Center
04:31PM 43.9200 -101.3422 94° East 517 595 37,000  Level Minneapolis Center
04:32PM 43.9144 -101.1475 92° East 513 590 37,000  Level Minneapolis Center
04:32PM 43.9089 -101.0253 94° East 520 598 37,000  Level Denver Center
04:33PM 43.9047 -100.9458 94° East 521 600 37,000  Level Minneapolis Center
04:34PM 43.8944 -100.7094 93° East 517 595 37,000  Level Minneapolis Center
04:35PM 43.8858 -100.5106 93° East 518 596 37,000  Level Minneapolis Center
04:36PM 43.8758 -100.3117 94° East 520 598 37,000  Level Minneapolis Center
04:37PM 43.8667 -100.1131 94° East 520 598 37,000  Level Minneapolis Center
04:38PM 43.8561 -99.9139 94° East 520 598 37,000  Level Minneapolis Center
04:39PM 43.8453 -99.7147 94° East 521 600 37,000  Level Minneapolis Center
04:40PM 43.8325 -99.4756 94° East 521 600 37,000  Level Minneapolis Center
04:41PM 43.8217 -99.2750 94° East 523 602 37,000  Level Minneapolis Center
04:42PM 43.8083 -99.0767 95° East 523 602 37,000  Level Minneapolis Center
04:43PM 43.7881 -98.8803 98° East 519 597 37,000  Level Minneapolis Center
04:44PM 43.7653 -98.6583 98° East 518 596 37,000  Level Minneapolis Center
04:45PM 43.7453 -98.4619 98° East 518 596 37,000  Level Minneapolis Center
04:46PM 43.7244 -98.2650 98° East 518 596 37,000  Level Minneapolis Center
04:47PM 43.7044 -98.0681 98° East 520 598 37,000  Level Minneapolis Center
04:48PM 43.6833 -97.8739 98° East 515 593 37,000  Level Minneapolis Center
04:49PM 43.6572 -97.6397 99° East 516 594 37,000  Level Minneapolis Center
04:50PM 43.6364 -97.4442 98° East 516 594 37,000  Level Minneapolis Center
04:51PM 43.6139 -97.2503 99° East 515 593 37,000  Level Minneapolis Center
04:52PM 43.5919 -97.0561 99° East 516 594 37,000  Level Minneapolis Center
04:53PM 43.5683 -96.8622 99° East 517 595 37,000  Level Minneapolis Center
04:54PM 43.5411 -96.6328 99° East 512 589 37,000  Level Minneapolis Center
04:55PM 43.5181 -96.4386 99° East 517 595 37,000  Level Minneapolis Center
04:56PM 43.4947 -96.2461 99° East 516 594 37,000  Level Minneapolis Center
04:57PM 43.4708 -96.0539 100° East 516 594 37,000  Level Minneapolis Center
04:58PM 43.4461 -95.8606 100° East 517 595 37,000  Level Minneapolis Center
05:00PM 43.4161 -95.6300 100° East 516 594 37,000  Level Minneapolis Center
05:01PM 43.3917 -95.4375 100° East 516 594 37,000  Level Minneapolis Center
05:02PM 43.3661 -95.2467 100° East 513 590 37,000  Level Minneapolis Center
05:03PM 43.3400 -95.0531 100° East 518 596 37,000  Level Minneapolis Center
05:04PM 43.3139 -94.8608 101° East 516 594 37,000  Level Minneapolis Center
05:05PM 43.2814 -94.6317 101° East 514 592 37,000  Level Minneapolis Center
05:06PM 43.2561 -94.4394 100° East 515 593 37,000  Level Minneapolis Center
05:07PM 43.2281 -94.2472 101° East 516 594 37,000  Level Minneapolis Center
05:08PM 43.2014 -94.0583 101° East 520 598 37,000  Level Minneapolis Center
05:09PM 43.1733 -93.8681 101° East 517 595 37,000  Level Minneapolis Center
05:10PM 43.1406 -93.6394 101° East 517 595 37,000  Level Minneapolis Center
05:11PM 43.1128 -93.4492 101° East 517 595 37,000  Level Minneapolis Center
05:12PM 43.0892 -93.2567 99° East 516 594 37,000  Level Minneapolis Center
05:13PM 43.0767 -93.0617 95° East 519 597 37,000  Level Minneapolis Center
05:14PM 43.0642 -92.8675 95° East 518 596 37,000 -780 Level Minneapolis Center
05:15PM 43.0469 -92.6353 96° East 516 594 35,500 -1,500 Descending Minneapolis Center
05:16PM 43.0328 -92.4394 96° East 521 600 34,000 -1,500 Descending Minneapolis Center
05:17PM 43.0192 -92.2408 95° East 527 606 32,500 -1,380 Descending Minneapolis Center
05:18PM 43.0039 -92.0419 96° East 529 609 31,200 -780 Descending Minneapolis Center
05:19PM 42.9922 -91.8817 96° East 531 611 31,000 -120 Descending Minneapolis Center
05:20PM 42.9753 -91.6383 95° East 533 613 31,000 -240 Level Minneapolis Center
05:21PM 42.9536 -91.3939 97° East 534 615 30,600 -780 Descending Minneapolis Center
05:22PM 42.9289 -91.2336 102° East 536 617 29,400 -1,440 Descending Minneapolis Center
05:23PM 42.8906 -91.0058 103° East 521 600 27,600 -1,620 Descending Minneapolis Center
05:24PM 42.8592 -90.8181 103° East 514 592 26,100 -1,440 Descending Minneapolis Center
05:25PM 42.8478 -90.7453 102° East 511 588 25,500 -1,380 Descending Chicago Center
05:26PM 42.8086 -90.5233 103° East 508 585 24,100 -780 Descending Chicago Center
05:27PM 42.7764 -90.3389 103° East 505 581 24,000 -60 Descending Chicago Center
05:28PM 42.7456 -90.1589 103° East 498 573 24,000 -180 Level Chicago Center
05:29PM 42.7136 -89.9808 104° East 491 565 23,700 -1,020 Descending Chicago Center
05:30PM 42.6792 -89.7772 103° East 483 556 21,900 -1,620 Descending Chicago Center
05:31PM 42.6475 -89.5992 104° East 484 557 20,400 -1,500 Descending Chicago Center
05:32PM 42.6144 -89.4194 104° East 489 563 18,900 -1,500 Descending Chicago Center
05:33PM 42.5831 -89.2444 104° East 484 557 17,300 -960 Descending Chicago Center
05:34PM 42.5394 -89.0472 107° East 474 545 17,000 -840 Descending Chicago Center
05:35PM 42.4914 -88.8858 112° Southeast 465 535 15,600 -1,620 Descending Chicago Center
05:36PM 42.4431 -88.7272 112° Southeast 457 526 13,700 -2,040 Descending Chicago Center
05:37PM 42.4036 -88.5922 112° Southeast 401 461 11,500 -1,980 Descending Chicago Center
05:38PM 42.3692 -88.4778 112° Southeast 346 398 9,700 -1,680 Descending Chicago Center
05:39PM 42.3314 -88.3789 117° Southeast 293 337 8,000 -840 Descending Chicago Center
05:40PM 42.2661 -88.3567 166° South 240 276 8,000  Level Chicago Center
05:41PM 42.1953 -88.3350 167° South 220 253 8,000  Level Chicago Center
05:42PM 42.1342 -88.3206 170° South 224 258 8,000  Level Chicago Center
05:43PM 42.0756 -88.3053 169° South 218 251 8,000 -360 Level Chicago Center
05:44PM 42.0169 -88.3028 178° South 211 243 7,300 -780 Descending Chicago Center
05:46PM 41.9644 -88.2886 169° South 208 239 6,400 -1,440 Descending Chicago Center
05:47PM 41.9675 -88.1992 87° East 198 228 4,400 -1,380 Descending Chicago Center
05:48PM 41.9667 -88.1167 91° East 188 216 3,300 -960 Descending Chicago TRACON